x

Isle Of Shoals, Nh (iosn3) Weather Station

7:00pm - Wed 22nd Nov 2017 All times are EST. -5 hours from GMT.

  • Wind
    24mph, 28mph gusts
  • Air Temp 41°f
  • Sea Pressure 1009.3mb
  • Isle Of Shoals, Nh
  • Isle Of Shoals, Nh

More Historic Weather Station data

Upgrade to MSW Pro to gain access to the past 30 days of data for over 8000 Wavebouys and Weather Stations around the globe.

Join

Comparision Forecast

View Surf forecast
   
Wed 11/22 7:00pm 24 28 mph 1009.3mb 41f
6:00pm 31 32 mph 1008.2mb 42f
5:00pm 22 23 mph 1008.4mb 44f
4:00pm 17 20 mph 1008.5mb 45f
3:00pm 18 20 mph 1008.3mb 45f
2:00pm 16 18 mph 1007.9mb 46f
1:00pm 14 15 mph 1008.6mb 51f
12:00pm 16 16 mph 1010.3mb 52f
11:00am 21 22 mph 1011.5mb 51f
10:00am 11 13 mph 1012.3mb 50f
9:00am 8 9 mph 1013.6mb 50f
8:00am  -  2 mph 1013.8mb 49f
7:00am 7 8 mph 1014mb 49f
6:00am 14 14 mph 1014.2mb 50f
5:00am 18 21 mph 1014.7mb 50f
4:00am 20 22 mph 1014.8mb 50f
3:00am 23 24 mph 1015mb 50f
12:00am 21 23 mph 1015.6mb 50f
Tue 11/21 11:00pm 20 22 mph 1015.6mb 49f
10:00pm 15 16 mph 1015.6mb 50f
9:00pm 18 20 mph 1015.6mb 50f
8:00pm 22 24 mph 1015.3mb 50f
7:00pm 28 29 mph 1014.8mb 51f
6:00pm 28 30 mph 1014.2mb 51f
5:00pm 24 25 mph 1014.5mb 52f
4:00pm 26 32 mph 1013.7mb 55f
3:00pm 28 30 mph 1013.7mb 54f
2:00pm 23 25 mph 1014mb 55f
1:00pm 22 24 mph 1014.6mb 53f
12:00pm 21 23 mph 1015.8mb 51f
11:00am 13 14 mph 1017.3mb 45f
10:00am 21 23 mph 1018.4mb 42f
9:00am 25 28 mph 1018.7mb 41f
8:00am 22 24 mph 1018.7mb 40f
7:00am 21 23 mph 1018.7mb 41f
6:00am 23 25 mph 1018.2mb 41f
5:00am 21 23 mph 1017.7mb 41f
4:00am 21 23 mph 1017.9mb 42f
3:00am 21 22 mph 1017.9mb 42f
2:00am 22 23 mph 1017.9mb 42f
1:00am 24 26 mph 1017.3mb 41f
12:00am 21 24 mph 1017mb 40f
Mon 11/20 11:00pm 20 23 mph 1016.7mb 40f
10:00pm 21 24 mph 1016.2mb 40f
9:00pm 22 24 mph 1015.4mb 39f
8:00pm 22 26 mph 1014.7mb 40f
7:00pm 29 31 mph 1013.4mb 40f
6:00pm 25 30 mph 1013mb 39f
5:00pm 28 31 mph 1012.3mb 39f
4:00pm 26 30 mph 1011.7mb 40f
3:00pm 30 34 mph 1010.4mb 40f
2:00pm 25 29 mph 1010mb 39f
1:00pm 26 30 mph 1009.8mb 38f
12:00pm 34 44 mph 1009.5mb 37f
11:00am 26 30 mph 1009.9mb 36f
10:00am 49 53 mph 1008.1mb 35f
9:00am 38 43 mph 1008.6mb 35f
8:00am 32 38 mph 1008.3mb 35f
7:00am 21 23 mph 1008mb 35f
6:00am 20 23 mph 1007.2mb 35f
5:00am 20 23 mph 1006.2mb 36f
4:00am 22 26 mph 1005.3mb 36f
3:00am 23 26 mph 1004.4mb 36f
2:00am 21 24 mph 1003.8mb 36f
1:00am 22 24 mph 1002.7mb 37f
12:00am 25 28 mph 1002.1mb 37f
Sun 11/19 11:00pm 31 36 mph 1000.9mb 37f
10:00pm 28 32 mph 1001mb 37f
9:00pm 30 36 mph 1000.2mb 38f
8:00pm 33 38 mph 998.6mb 39f
7:00pm 29 33 mph 997.5mb 39f
6:00pm 36 43 mph 996mb 40f
5:00pm 36 41 mph 993.9mb 42f
4:00pm 39 46 mph 991.7mb 44f
3:00pm 34 41 mph 989.5mb 46f
2:00pm 36 40 mph 987.3mb 48f
1:00pm 41 46 mph 985.2mb 49f
12:00pm 32 36 mph 984mb 56f
11:00am 24 25 mph 984.8mb 54f
10:00am 30 32 mph 985.4mb 55f
9:00am 28 29 mph 986.4mb 54f
8:00am 29 32 mph 987.1mb 55f
7:00am 25 29 mph 987.7mb 55f
6:00am 23 24 mph 988.5mb 55f
5:00am 23 24 mph 990.3mb 54f
4:00am 24 25 mph 991.4mb 52f
3:00am 25 26 mph 993.1mb 51f